Time;durP1;ratioP1;P1;durP2;ratioP2;P2;SDS_P1;SDS_P2;PMS_P1;PMS_P2;Temp;Humidity;BMP_temperature;BMP_pressure;BME280_temperature;BME280_humidity;BME280_pressure;Samples;Min_cycle;Max_cycle;Signal;HPM_P1;HPM_P2
2021/12/22 00:00:18;;;;;;;43.70;10.90;;;-2.60;99.90;;;;;;5024710;28;20033;-71
2021/12/22 00:02:48;;;;;;;57.50;12.18;;;-2.60;99.90;;;;;;5023400;28;20034;-71
2021/12/22 00:05:24;;;;;;;36.25;9.18;;;-2.60;99.90;;;;;;5027944;28;20119;-71
2021/12/22 00:08:12;;;;;;;47.53;10.90;;;-2.60;99.90;;;;;;5029170;28;20049;-73
2021/12/22 00:10:39;;;;;;;48.63;9.02;;;-2.50;99.90;;;;;;5028772;28;20025;-72
2021/12/22 00:13:05;;;;;;;37.42;11.15;;;-2.60;99.90;;;;;;5027413;28;20026;-72
2021/12/22 00:15:30;;;;;;;110.43;15.38;;;-2.70;99.90;;;;;;5027974;28;20041;-72
2021/12/22 00:18:05;;;;;;;35.10;9.23;;;-2.70;99.90;;;;;;5048450;28;20041;-72
2021/12/22 00:20:31;;;;;;;63.60;12.50;;;-2.70;99.90;;;;;;5048429;28;20029;-73
2021/12/22 00:22:57;;;;;;;66.75;10.98;;;-2.70;99.90;;;;;;5056670;28;20076;-74
2021/12/22 00:25:25;;;;;;;59.63;13.07;;;-2.70;99.90;;;;;;5046530;28;20041;-72
2021/12/22 00:27:53;;;;;;;105.03;13.15;;;-2.70;99.90;;;;;;5046610;28;20034;-72
2021/12/22 00:30:19;;;;;;;45.47;11.15;;;-2.70;99.90;;;;;;5048036;28;20431;-72
2021/12/22 00:32:51;;;;;;;66.43;11.02;;;-2.70;99.90;;;;;;5047775;28;20033;-72
2021/12/22 00:35:20;;;;;;;21.95;8.45;;;-2.70;99.90;;;;;;5048096;28;20033;-73
2021/12/22 00:37:46;;;;;;;29.80;9.27;;;-2.70;99.90;;;;;;5062979;28;20060;-71
2021/12/22 00:40:12;;;;;;;55.22;11.65;;;-2.70;99.90;;;;;;5048124;28;20497;-71
2021/12/22 00:42:38;;;;;;;31.77;8.10;;;-2.70;99.90;;;;;;5047976;28;20021;-71
2021/12/22 00:45:04;;;;;;;25.23;7.38;;;-2.70;99.90;;;;;;5047428;28;20052;-71
2021/12/22 00:47:31;;;;;;;24.35;8.90;;;-2.70;99.90;;;;;;5047666;28;20132;-71
2021/12/22 00:49:59;;;;;;;34.13;7.78;;;-2.70;99.90;;;;;;5046491;28;20032;-72
2021/12/22 00:52:25;;;;;;;40.83;9.63;;;-2.70;99.90;;;;;;5047825;28;20029;-72
2021/12/22 00:54:51;;;;;;;40.63;9.85;;;-2.60;99.90;;;;;;5047632;28;20033;-71
2021/12/22 00:57:17;;;;;;;71.13;9.30;;;-2.60;99.90;;;;;;5046321;28;20026;-72
2021/12/22 00:59:46;;;;;;;24.70;9.50;;;-2.70;99.90;;;;;;5047666;28;20040;-71
2021/12/22 01:02:13;;;;;;;49.22;10.85;;;-2.70;99.90;;;;;;5047510;28;20036;-72
2021/12/22 01:04:39;;;;;;;22.33;7.93;;;-2.80;99.90;;;;;;5047089;28;20069;-72
2021/12/22 01:07:05;;;;;;;102.20;18.17;;;-2.80;99.90;;;;;;5046140;28;20431;-71
2021/12/22 01:09:32;;;;;;;68.38;10.90;;;-2.80;99.90;;;;;;5045592;28;20396;-74
2021/12/22 01:11:58;;;;;;;61.20;12.23;;;-2.80;99.90;;;;;;5045799;28;20109;-71
2021/12/22 01:14:24;;;;;;;30.98;8.88;;;-2.90;99.90;;;;;;5047454;28;20037;-72
2021/12/22 01:16:53;;;;;;;39.08;9.00;;;-2.90;99.90;;;;;;5047528;28;20094;-72
2021/12/22 01:19:30;;;;;;;41.88;10.30;;;-2.80;99.90;;;;;;5047110;28;20120;-73
2021/12/22 01:22:05;;;;;;;57.17;11.18;;;-2.80;99.90;;;;;;5045635;28;20561;-72
2021/12/22 01:24:33;;;;;;;34.63;8.05;;;-2.90;99.90;;;;;;5047113;28;20481;-73
2021/12/22 01:27:07;;;;;;;31.92;9.25;;;-2.80;99.90;;;;;;5045797;28;20028;-73
2021/12/22 01:29:34;;;;;;;35.60;7.97;;;-2.80;99.90;;;;;;5047100;28;20083;-72
2021/12/22 01:32:01;;;;;;;29.00;10.80;;;-2.80;99.90;;;;;;5047254;28;20034;-73
2021/12/22 01:34:29;;;;;;;57.90;9.70;;;-2.90;99.90;;;;;;5047117;28;20029;-73
2021/12/22 01:36:55;;;;;;;47.05;11.75;;;-2.90;99.90;;;;;;5046461;28;20120;-71
2021/12/22 01:39:21;;;;;;;23.10;8.07;;;-2.90;99.90;;;;;;5045694;28;20120;-70
2021/12/22 01:41:47;;;;;;;65.57;11.30;;;-2.90;99.90;;;;;;5046887;28;20032;-72
2021/12/22 01:50:17;;;;;;;60.78;11.20;;;-3.00;99.90;;;;;;5047138;28;20509;-71
2021/12/22 01:52:43;;;;;;;25.08;7.97;;;-3.00;99.90;;;;;;5046344;28;20029;-70
2021/12/22 01:55:35;;;;;;;55.42;10.32;;;-3.00;99.90;;;;;;5044907;28;20029;-70
2021/12/22 01:58:05;;;;;;;23.50;7.60;;;-3.00;99.90;;;;;;5044993;28;20032;-71
2021/12/22 02:00:31;;;;;;;82.22;15.15;;;-3.00;99.90;;;;;;5046049;28;20021;-72
2021/12/22 02:02:57;;;;;;;21.48;7.60;;;-3.00;99.90;;;;;;5046549;28;20031;-72
2021/12/22 02:05:24;;;;;;;27.42;8.40;;;-3.10;99.90;;;;;;5046682;28;20060;-72
2021/12/22 02:07:55;;;;;;;26.45;8.13;;;-3.00;99.90;;;;;;5044842;28;20029;-72
2021/12/22 02:10:38;;;;;;;32.40;10.55;;;-3.00;99.90;;;;;;5046614;28;20036;-72
2021/12/22 02:13:04;;;;;;;26.88;7.68;;;-3.10;99.90;;;;;;5045883;28;20028;-70
2021/12/22 02:15:37;;;;;;;34.03;10.30;;;-3.10;99.90;;;;;;5044344;28;20028;-72
2021/12/22 02:18:04;;;;;;;18.20;7.15;;;-3.20;99.90;;;;;;5029174;28;20036;-71
2021/12/22 02:20:30;;;;;;;43.17;9.50;;;-3.10;99.90;;;;;;5026100;28;20048;-71
2021/12/22 02:22:56;;;;;;;26.55;8.75;;;-3.10;99.90;;;;;;5026095;28;20050;-72
2021/12/22 02:25:31;;;;;;;25.08;8.32;;;-3.10;99.90;;;;;;5026148;28;20041;-70
2021/12/22 02:27:57;;;;;;;44.63;9.63;;;-3.20;99.90;;;;;;5025687;28;20218;-73
2021/12/22 02:30:26;;;;;;;32.55;11.43;;;-3.20;99.90;;;;;;5026106;28;20066;-72
2021/12/22 02:35:26;;;;;;;44.33;9.88;;;-3.20;99.90;;;;;;5025934;28;20553;-72
2021/12/22 02:37:52;;;;;;;54.00;10.23;;;-3.20;99.90;;;;;;5024311;28;20055;-72
2021/12/22 02:40:24;;;;;;;36.75;10.15;;;-3.20;99.90;;;;;;5023974;28;20501;-71
2021/12/22 02:42:53;;;;;;;40.63;12.33;;;-3.20;99.90;;;;;;5024175;28;20049;-73
2021/12/22 02:45:20;;;;;;;24.75;8.27;;;-3.20;99.90;;;;;;5043931;28;20370;-72
2021/12/22 02:47:47;;;;;;;25.88;7.47;;;-3.20;99.90;;;;;;5045311;28;20029;-72
2021/12/22 02:50:22;;;;;;;25.55;8.70;;;-3.20;99.90;;;;;;5040057;28;20037;-73
2021/12/22 02:53:09;;;;;;;39.33;8.25;;;-3.30;99.90;;;;;;5024223;28;20025;-71
2021/12/22 02:56:02;;;;;;;29.20;11.93;;;-3.30;99.90;;;;;;5024139;28;20029;-71
2021/12/22 03:01:12;;;;;;;39.63;11.07;;;-3.30;99.90;;;;;;5025700;28;20030;-72
2021/12/22 03:03:53;;;;;;;15.50;6.85;;;-3.30;99.90;;;;;;5025460;28;20025;-73
2021/12/22 03:06:57;;;;;;;55.42;11.95;;;-3.30;99.90;;;;;;5025269;28;20026;-71
2021/12/22 03:09:23;;;;;;;35.88;10.68;;;-3.20;99.90;;;;;;5024194;28;20034;-72
2021/12/22 03:11:50;;;;;;;35.17;9.23;;;-3.20;99.90;;;;;;5023831;28;20030;-72
2021/12/22 03:14:17;;;;;;;54.90;14.50;;;-3.20;99.90;;;;;;5025106;28;20149;-71
2021/12/22 03:16:44;;;;;;;26.58;7.45;;;-3.20;99.90;;;;;;5025150;28;20029;-73
2021/12/22 03:19:12;;;;;;;96.22;10.30;;;-3.20;99.90;;;;;;5023890;28;20502;-73
2021/12/22 03:21:40;;;;;;;22.38;7.97;;;-3.30;99.90;;;;;;5024508;28;20050;-72
2021/12/22 03:24:06;;;;;;;35.25;9.35;;;-3.30;99.90;;;;;;5024671;28;20541;-70
2021/12/22 03:26:32;;;;;;;23.98;7.35;;;-3.20;99.90;;;;;;5024541;28;20032;-70
2021/12/22 03:28:58;;;;;;;28.70;6.68;;;-3.20;99.90;;;;;;5024976;28;20033;-71
2021/12/22 03:31:24;;;;;;;35.35;9.07;;;-3.20;99.90;;;;;;5023771;28;20093;-69
2021/12/22 03:33:50;;;;;;;18.50;7.00;;;-3.20;99.90;;;;;;5023710;28;20029;-70
2021/12/22 03:36:16;;;;;;;43.55;8.40;;;-3.30;99.90;;;;;;5024560;28;20029;-71
2021/12/22 03:38:43;;;;;;;32.35;9.30;;;-3.20;99.90;;;;;;5022648;28;20030;-71
2021/12/22 03:41:09;;;;;;;19.73;8.10;;;-3.20;99.90;;;;;;5024648;28;20018;-71
2021/12/22 03:43:35;;;;;;;26.90;8.88;;;-3.20;99.90;;;;;;5024781;28;20378;-72
2021/12/22 03:46:02;;;;;;;24.02;7.72;;;-3.10;99.90;;;;;;5023557;28;20097;-72
2021/12/22 03:48:34;;;;;;;22.75;6.25;;;-3.20;99.90;;;;;;5023421;28;20022;-71
2021/12/22 03:51:00;;;;;;;58.85;12.02;;;-3.20;99.90;;;;;;5023416;28;20029;-72
2021/12/22 03:53:26;;;;;;;46.20;10.50;;;-3.30;99.90;;;;;;5024635;28;20045;-74
2021/12/22 03:55:51;;;;;;;45.88;10.52;;;-3.30;99.90;;;;;;5024413;28;20077;-72
2021/12/22 03:58:18;;;;;;;44.65;8.90;;;-3.30;99.90;;;;;;5024566;28;20041;-72
2021/12/22 04:00:44;;;;;;;57.17;14.48;;;-3.40;99.90;;;;;;5024397;28;20022;-73
2021/12/22 04:03:16;;;;;;;37.95;9.50;;;-3.40;99.90;;;;;;5024690;28;20056;-71
2021/12/22 04:05:42;;;;;;;34.25;11.30;;;-3.40;99.90;;;;;;5024713;28;20048;-72
2021/12/22 04:08:18;;;;;;;77.88;12.07;;;-3.40;99.90;;;;;;5024184;28;20058;-71
2021/12/22 04:10:49;;;;;;;52.92;10.13;;;-3.40;99.90;;;;;;5023963;28;20115;-70
2021/12/22 04:13:15;;;;;;;58.17;17.33;;;-3.40;99.90;;;;;;5022887;28;20095;-72
2021/12/22 04:15:42;;;;;;;37.88;11.85;;;-3.50;99.90;;;;;;5024326;28;20037;-72
2021/12/22 04:18:16;;;;;;;53.38;14.13;;;-3.50;99.90;;;;;;5024423;28;20048;-73
2021/12/22 04:20:45;;;;;;;55.28;10.98;;;-3.50;99.90;;;;;;5024601;28;20104;-71
2021/12/22 04:23:11;;;;;;;50.20;9.57;;;-3.50;99.90;;;;;;5024128;28;20100;-72
2021/12/22 04:25:37;;;;;;;49.03;13.55;;;-3.50;99.90;;;;;;5024386;28;20038;-72
2021/12/22 04:28:06;;;;;;;24.83;7.38;;;-3.50;99.90;;;;;;5024500;28;20068;-72
2021/12/22 04:30:34;;;;;;;64.00;11.45;;;-3.40;99.90;;;;;;5024129;28;20038;-71
2021/12/22 04:33:01;;;;;;;36.72;9.38;;;-3.40;99.90;;;;;;5024365;28;20022;-73
2021/12/22 04:35:26;;;;;;;15.52;5.95;;;-3.40;99.90;;;;;;5024104;28;20022;-72
2021/12/22 04:37:52;;;;;;;27.27;8.40;;;-3.40;99.90;;;;;;5024184;28;20018;-71
2021/12/22 04:40:27;;;;;;;63.72;13.15;;;-3.40;99.90;;;;;;5023172;28;20045;-73
2021/12/22 04:42:53;;;;;;;33.13;8.02;;;-3.40;99.90;;;;;;5023150;28;20085;-72
2021/12/22 04:45:19;;;;;;;24.15;9.48;;;-3.40;99.90;;;;;;5022944;28;20068;-72
2021/12/22 04:47:47;;;;;;;37.97;9.55;;;-3.40;99.90;;;;;;5022442;28;20022;-72
2021/12/22 04:50:17;;;;;;;86.38;11.45;;;-3.40;99.90;;;;;;5025495;28;20018;-73
2021/12/22 04:52:58;;;;;;;81.40;10.57;;;-3.40;99.90;;;;;;5027811;28;20022;-72
2021/12/22 04:55:27;;;;;;;25.08;7.85;;;-3.40;99.90;;;;;;5026327;28;20029;-71
2021/12/22 04:57:55;;;;;;;15.00;6.82;;;-3.40;99.90;;;;;;5027398;28;20024;-71
2021/12/22 05:00:22;;;;;;;32.58;8.13;;;-3.40;99.90;;;;;;5027784;28;20018;-72
2021/12/22 05:02:49;;;;;;;18.88;6.68;;;-3.50;99.90;;;;;;5026182;28;20538;-72
2021/12/22 05:05:15;;;;;;;25.55;9.02;;;-3.40;99.90;;;;;;5027568;28;20042;-70
2021/12/22 05:07:42;;;;;;;63.58;10.02;;;-3.40;99.90;;;;;;5027425;28;20085;-70
2021/12/22 05:10:08;;;;;;;26.90;8.20;;;-3.40;99.90;;;;;;5027626;28;20052;-72
2021/12/22 05:12:34;;;;;;;32.72;10.45;;;-3.40;99.90;;;;;;5027335;28;20026;-70
2021/12/22 05:15:00;;;;;;;42.47;9.48;;;-3.50;99.90;;;;;;5027644;28;20030;-72
2021/12/22 05:17:39;;;;;;;20.77;7.65;;;-3.40;99.90;;;;;;5026062;28;20029;-73
2021/12/22 05:20:06;;;;;;;61.67;10.00;;;-3.50;99.90;;;;;;5027348;28;20022;-72
2021/12/22 05:22:33;;;;;;;33.13;9.23;;;-3.50;99.90;;;;;;5024708;28;20050;-71
2021/12/22 05:25:02;;;;;;;28.02;8.90;;;-3.50;99.90;;;;;;5026978;28;20048;-71
2021/12/22 05:27:29;;;;;;;76.53;12.35;;;-3.40;99.90;;;;;;5027018;28;20030;-71
2021/12/22 05:29:55;;;;;;;69.25;9.32;;;-3.40;99.90;;;;;;5025865;28;20022;-72
2021/12/22 05:32:24;;;;;;;41.22;11.13;;;-3.40;99.90;;;;;;5025856;28;20118;-74
2021/12/22 05:35:03;;;;;;;60.45;7.07;;;-3.50;99.90;;;;;;5025751;28;20494;-73
2021/12/22 05:37:29;;;;;;;86.65;13.82;;;-3.50;99.90;;;;;;5027248;28;20041;-73
2021/12/22 05:39:56;;;;;;;44.55;8.07;;;-3.50;99.90;;;;;;5027231;28;20026;-75
2021/12/22 05:42:25;;;;;;;67.63;12.90;;;-3.50;99.90;;;;;;5025393;28;20609;-72
2021/12/22 05:44:51;;;;;;;57.33;11.68;;;-3.60;99.90;;;;;;5026686;28;20045;-73
2021/12/22 05:47:20;;;;;;;19.38;7.75;;;-3.60;99.90;;;;;;5026489;28;20044;-72
2021/12/22 05:49:45;;;;;;;23.90;7.03;;;-3.50;99.90;;;;;;5026832;28;20080;-73
2021/12/22 05:52:11;;;;;;;16.85;6.50;;;-3.50;99.90;;;;;;5026704;28;20030;-72
2021/12/22 05:54:38;;;;;;;75.78;10.73;;;-3.60;99.90;;;;;;5026501;28;20494;-71
2021/12/22 05:57:04;;;;;;;66.57;12.05;;;-3.50;99.90;;;;;;5024710;28;20064;-73
2021/12/22 05:59:29;;;;;;;54.30;8.10;;;-3.50;99.90;;;;;;5026316;28;20022;-72
2021/12/22 06:01:55;;;;;;;33.08;7.15;;;-3.60;99.90;;;;;;5025861;28;20086;-73
2021/12/22 06:04:21;;;;;;;26.15;6.78;;;-3.60;99.90;;;;;;5026700;28;20526;-72
2021/12/22 06:06:47;;;;;;;25.60;6.85;;;-3.60;99.90;;;;;;5026351;28;20029;-71
2021/12/22 06:09:22;;;;;;;28.58;7.43;;;-3.60;99.90;;;;;;5032869;28;20056;-72
2021/12/22 06:11:48;;;;;;;19.63;7.15;;;-3.50;99.90;;;;;;5024924;28;20073;-71
2021/12/22 06:14:14;;;;;;;59.65;9.52;;;-3.40;99.90;;;;;;5043955;28;20033;-72
2021/12/22 06:16:39;;;;;;;22.58;7.30;;;-3.40;99.90;;;;;;5044696;28;20025;-73
2021/12/22 06:19:08;;;;;;;13.32;5.32;;;-3.30;99.90;;;;;;5044807;28;20072;-72
2021/12/22 06:21:34;;;;;;;21.73;4.90;;;-3.30;99.90;;;;;;5044387;28;20117;-73
2021/12/22 06:24:00;;;;;;;16.85;6.55;;;-3.30;99.90;;;;;;5044638;28;20076;-71
2021/12/22 06:26:27;;;;;;;19.25;6.60;;;-3.20;99.90;;;;;;5045848;28;20021;-72
2021/12/22 06:28:53;;;;;;;25.73;6.72;;;-3.20;99.90;;;;;;5045046;28;20033;-71
2021/12/22 06:31:19;;;;;;;41.50;8.80;;;-3.20;99.90;;;;;;5045971;28;20044;-72
2021/12/22 06:33:44;;;;;;;24.85;8.43;;;-3.20;99.90;;;;;;5045691;28;20029;-73
2021/12/22 06:36:10;;;;;;;21.40;7.55;;;-3.20;99.90;;;;;;5044010;28;20018;-73
2021/12/22 06:38:44;;;;;;;21.60;8.15;;;-3.20;99.90;;;;;;5044034;28;20041;-74
2021/12/22 06:41:20;;;;;;;25.23;7.40;;;-3.20;99.90;;;;;;5045433;28;20033;-73
2021/12/22 06:43:46;;;;;;;34.00;8.52;;;-3.20;99.90;;;;;;5045329;28;20487;-72
2021/12/22 06:46:11;;;;;;;21.85;8.23;;;-3.20;99.90;;;;;;5045401;28;20030;-72
2021/12/22 06:48:37;;;;;;;26.05;7.63;;;-3.20;99.90;;;;;;5045080;28;20081;-71
2021/12/22 06:51:03;;;;;;;20.75;6.70;;;-3.20;99.90;;;;;;5045495;28;20029;-74
2021/12/22 06:53:34;;;;;;;14.20;5.75;;;-3.20;99.90;;;;;;5045739;28;20017;-73
2021/12/22 06:56:00;;;;;;;36.28;9.23;;;-3.20;99.90;;;;;;5045283;28;20025;-70
2021/12/22 06:58:26;;;;;;;23.65;5.75;;;-3.20;99.90;;;;;;5045263;28;20064;-72
2021/12/22 07:00:52;;;;;;;24.63;6.20;;;-3.30;99.90;;;;;;5045553;28;20091;-73
2021/12/22 07:03:18;;;;;;;16.90;6.95;;;-3.30;99.90;;;;;;5043952;28;20072;-71
2021/12/22 07:05:43;;;;;;;33.33;7.25;;;-3.30;99.90;;;;;;5060341;28;20046;-73
2021/12/22 07:08:09;;;;;;;87.88;10.70;;;-3.20;99.90;;;;;;5043943;28;20063;-75
2021/12/22 07:10:35;;;;;;;13.75;5.43;;;-3.20;99.90;;;;;;5045045;28;20060;-72
2021/12/22 07:13:01;;;;;;;13.15;4.85;;;-3.20;99.90;;;;;;5043445;28;20025;-73
2021/12/22 07:15:26;;;;;;;21.90;5.47;;;-3.20;99.90;;;;;;5045232;28;20464;-72
2021/12/22 07:18:08;;;;;;;19.92;5.55;;;-3.30;99.90;;;;;;5045286;28;20056;-75
2021/12/22 07:20:34;;;;;;;17.70;6.28;;;-3.30;99.90;;;;;;5043497;28;20092;-72
2021/12/22 07:23:00;;;;;;;40.40;6.57;;;-3.30;99.90;;;;;;5040924;28;20579;-73
2021/12/22 07:25:28;;;;;;;23.63;6.32;;;-3.30;99.90;;;;;;5025817;28;20065;-76
2021/12/22 07:27:57;;;;;;;16.60;6.55;;;-3.30;99.90;;;;;;5034561;28;20041;-75
2021/12/22 07:30:29;;;;;;;27.13;6.28;;;-3.30;99.90;;;;;;5033834;28;20029;-74
2021/12/22 07:32:55;;;;;;;20.10;6.90;;;-3.30;99.90;;;;;;5042214;28;20044;-75
2021/12/22 07:35:33;;;;;;;30.70;6.78;;;-3.30;99.90;;;;;;5038848;28;20040;-75
2021/12/22 07:38:31;;;;;;;18.92;6.28;;;-3.30;99.90;;;;;;5033252;28;20026;-75
2021/12/22 07:40:58;;;;;;;17.98;5.07;;;-3.30;99.90;;;;;;5033987;28;20085;-76
2021/12/22 07:43:26;;;;;;;17.15;5.28;;;-3.30;99.90;;;;;;5037019;28;20028;-75
2021/12/22 07:45:53;;;;;;;18.17;6.35;;;-3.30;99.90;;;;;;5034956;28;20034;-75
2021/12/22 07:48:19;;;;;;;12.57;4.88;;;-3.30;99.90;;;;;;5023780;28;20111;-74
2021/12/22 07:50:45;;;;;;;29.40;9.52;;;-3.30;99.90;;;;;;5023914;28;20053;-73
2021/12/22 07:53:15;;;;;;;16.67;4.22;;;-3.30;99.90;;;;;;5024490;28;20026;-76
2021/12/22 07:56:03;;;;;;;27.23;8.25;;;-3.30;99.90;;;;;;5028109;28;20047;-74
2021/12/22 07:58:28;;;;;;;15.57;6.30;;;-3.30;99.90;;;;;;5036337;28;20037;-75
2021/12/22 08:00:56;;;;;;;35.17;7.28;;;-3.20;99.90;;;;;;5038314;28;20068;-74
2021/12/22 08:03:21;;;;;;;24.38;6.18;;;-3.30;99.90;;;;;;5029907;28;20033;-75
2021/12/22 08:05:47;;;;;;;7.53;4.05;;;-3.30;99.90;;;;;;5040704;28;20029;-76
2021/12/22 08:08:13;;;;;;;11.77;4.82;;;-3.30;99.90;;;;;;5041411;28;20041;-74
2021/12/22 08:10:41;;;;;;;44.28;5.05;;;-3.30;99.90;;;;;;5043740;28;20025;-76
2021/12/22 08:13:07;;;;;;;31.80;8.60;;;-3.20;99.90;;;;;;5044627;28;20022;-75
2021/12/22 08:15:32;;;;;;;14.55;4.43;;;-3.30;99.90;;;;;;5042700;28;20047;-74
2021/12/22 08:17:58;;;;;;;5.82;3.10;;;-3.30;99.90;;;;;;5044076;28;20021;-74
2021/12/22 08:20:25;;;;;;;20.83;5.68;;;-3.30;99.90;;;;;;5034058;28;20036;-76
2021/12/22 08:22:51;;;;;;;15.82;6.88;;;-3.30;99.90;;;;;;5035048;28;20270;-75
2021/12/22 08:25:17;;;;;;;23.13;6.43;;;-3.20;99.90;;;;;;5027115;28;20561;-75
2021/12/22 08:27:47;;;;;;;22.80;5.45;;;-3.20;99.90;;;;;;5053189;28;20029;-75
2021/12/22 08:30:13;;;;;;;8.50;3.92;;;-3.20;99.90;;;;;;5066020;28;20058;-74
2021/12/22 08:32:42;;;;;;;20.40;6.72;;;-3.10;99.90;;;;;;5060862;28;20017;-76
2021/12/22 08:35:10;;;;;;;15.45;5.55;;;-3.10;99.90;;;;;;5041430;28;20036;-73
2021/12/22 08:40:28;;;;;;;15.43;5.97;;;-3.20;99.90;;;;;;5046908;28;20040;-76
2021/12/22 08:42:54;;;;;;;18.50;6.78;;;-3.10;99.90;;;;;;5046771;28;20055;-75
2021/12/22 08:45:21;;;;;;;17.45;5.53;;;-3.10;99.90;;;;;;5046327;28;20037;-76
2021/12/22 08:47:47;;;;;;;58.25;9.23;;;-3.00;99.90;;;;;;5047398;28;20033;-76
2021/12/22 08:50:15;;;;;;;17.35;6.00;;;-3.00;99.90;;;;;;5046115;28;20035;-74
2021/12/22 08:52:41;;;;;;;17.65;5.70;;;-3.00;99.90;;;;;;5047691;28;20034;-74
2021/12/22 08:55:08;;;;;;;18.55;7.45;;;-3.00;99.90;;;;;;5045333;28;20097;-75
2021/12/22 08:57:34;;;;;;;22.40;6.68;;;-2.90;99.90;;;;;;5046243;28;20088;-75
2021/12/22 09:00:09;;;;;;;16.33;6.22;;;-2.80;99.90;;;;;;5038418;28;20071;-75
2021/12/22 09:02:36;;;;;;;22.42;8.60;;;-2.80;99.90;;;;;;5043107;28;20029;-75
2021/12/22 09:05:02;;;;;;;13.18;4.63;;;-2.70;99.90;;;;;;5041504;28;20100;-76
2021/12/22 09:07:30;;;;;;;23.73;7.05;;;-2.70;99.90;;;;;;5035331;28;20022;-75
2021/12/22 09:09:58;;;;;;;42.17;8.65;;;-2.70;99.90;;;;;;5036374;28;20097;-75
2021/12/22 09:12:27;;;;;;;22.38;6.53;;;-2.70;99.90;;;;;;5040570;28;20029;-74
2021/12/22 09:14:53;;;;;;;26.02;7.50;;;-2.70;99.90;;;;;;5044731;28;20049;-73
2021/12/22 09:17:19;;;;;;;34.55;6.82;;;-2.70;99.90;;;;;;5032745;28;20041;-74
2021/12/22 09:19:44;;;;;;;27.92;7.65;;;-2.70;99.90;;;;;;5042095;28;20037;-75
2021/12/22 09:22:10;;;;;;;25.20;8.35;;;-2.70;99.90;;;;;;5042656;28;20057;-75
2021/12/22 09:24:35;;;;;;;25.27;7.65;;;-2.70;99.90;;;;;;5047273;28;20045;-77
2021/12/22 09:27:01;;;;;;;27.15;7.88;;;-2.70;99.90;;;;;;5034472;28;20052;-74
2021/12/22 09:29:29;;;;;;;15.60;5.88;;;-2.70;99.90;;;;;;5040049;28;20033;-75
2021/12/22 09:31:57;;;;;;;21.70;6.75;;;-2.70;99.90;;;;;;5047026;28;20017;-75
2021/12/22 09:34:23;;;;;;;23.00;7.53;;;-2.70;99.90;;;;;;5042677;28;20096;-74
2021/12/22 09:36:48;;;;;;;28.23;8.18;;;-2.70;99.90;;;;;;5043024;28;20056;-77
2021/12/22 09:39:23;;;;;;;28.75;8.77;;;-2.70;99.90;;;;;;5033936;28;20102;-77
2021/12/22 09:41:49;;;;;;;13.73;3.65;;;-2.60;99.90;;;;;;5035213;28;20071;-76
2021/12/22 09:44:15;;;;;;;24.85;6.88;;;-2.60;99.90;;;;;;5029931;28;20052;-76
2021/12/22 09:46:53;;;;;;;17.15;7.13;;;-2.60;99.90;;;;;;5035318;28;20483;-75
2021/12/22 09:49:58;;;;;;;23.50;9.50;;;-2.50;99.90;;;;;;5039644;28;20064;-75
2021/12/22 09:52:21;;;;;;;28.15;9.23;;;-2.50;99.90;;;;;;5040425;28;20033;-76
2021/12/22 09:54:49;;;;;;;29.40;9.15;;;-2.40;99.90;;;;;;5036934;28;20051;-74
2021/12/22 09:57:17;;;;;;;28.25;9.40;;;-2.40;99.90;;;;;;5038700;28;20053;-74
2021/12/22 09:59:50;;;;;;;27.95;9.85;;;-2.40;99.90;;;;;;5035473;28;20021;-74
2021/12/22 10:02:18;;;;;;;25.08;9.25;;;-2.30;99.90;;;;;;5045271;28;20025;-74
2021/12/22 10:04:44;;;;;;;23.25;8.30;;;-2.40;99.90;;;;;;5038359;28;20093;-74
2021/12/22 10:07:17;;;;;;;31.73;11.15;;;-2.30;99.90;;;;;;5036544;28;20175;-75
2021/12/22 10:09:44;;;;;;;34.13;12.25;;;-2.40;99.90;;;;;;5046596;28;20089;-75
2021/12/22 10:12:22;;;;;;;29.85;10.00;;;-2.30;99.90;;;;;;5044505;28;20060;-76
2021/12/22 10:14:54;;;;;;;33.92;9.95;;;-2.30;99.90;;;;;;5024786;28;20030;-75
2021/12/22 10:17:41;;;;;;;29.40;10.57;;;-2.30;99.90;;;;;;5026550;28;20486;-75
2021/12/22 10:20:20;;;;;;;25.10;9.63;;;-2.30;99.90;;;;;;5026733;28;20094;-76
2021/12/22 10:22:50;;;;;;;36.33;9.73;;;-2.30;99.90;;;;;;5026178;28;20045;-76
2021/12/22 10:25:25;;;;;;;41.38;9.75;;;-2.30;99.90;;;;;;5026876;28;20041;-75
2021/12/22 10:28:19;;;;;;;41.03;12.00;;;-2.30;99.90;;;;;;5042393;28;20042;-76
2021/12/22 10:30:47;;;;;;;25.83;9.43;;;-2.30;99.90;;;;;;5033781;28;20117;-75
2021/12/22 10:33:18;;;;;;;36.28;11.63;;;-2.30;99.90;;;;;;5037516;28;20025;-76
2021/12/22 10:35:49;;;;;;;42.33;11.57;;;-2.20;99.90;;;;;;5035668;28;20123;-76
2021/12/22 10:38:19;;;;;;;44.58;13.45;;;-2.20;99.90;;;;;;5042857;28;20060;-76
2021/12/22 10:40:50;;;;;;;28.40;10.07;;;-2.20;99.90;;;;;;5045814;28;20033;-76
2021/12/22 10:43:23;;;;;;;29.05;10.32;;;-2.20;99.90;;;;;;5032685;28;20030;-77
2021/12/22 10:45:52;;;;;;;38.43;11.00;;;-2.20;99.90;;;;;;5040525;28;20044;-74
2021/12/22 10:51:20;;;;;;;24.88;10.35;;;-2.20;99.90;;;;;;5041179;28;20036;-75
2021/12/22 10:53:48;;;;;;;45.03;11.63;;;-2.10;99.90;;;;;;5032204;28;20033;-74
2021/12/22 10:56:23;;;;;;;32.67;12.20;;;-2.10;99.90;;;;;;5036027;28;20052;-75
2021/12/22 10:59:03;;;;;;;40.42;11.35;;;-2.10;99.90;;;;;;5034491;28;20041;-76
2021/12/22 11:01:35;;;;;;;31.63;9.77;;;-2.10;99.90;;;;;;5033906;28;20089;-76
2021/12/22 11:04:13;;;;;;;36.20;10.73;;;-2.00;99.90;;;;;;5023898;28;20049;-75
2021/12/22 11:06:39;;;;;;;33.67;10.88;;;-2.00;99.90;;;;;;5025112;28;20030;-75
2021/12/22 11:09:13;;;;;;;33.72;11.25;;;-2.00;99.90;;;;;;5023927;28;20022;-75
2021/12/22 11:11:45;;;;;;;33.25;9.60;;;-1.90;99.90;;;;;;5043049;28;20048;-76
2021/12/22 11:14:16;;;;;;;32.85;10.35;;;-1.90;99.90;;;;;;5045260;28;20501;-77
2021/12/22 11:17:02;;;;;;;27.05;9.63;;;-1.90;99.90;;;;;;5043926;28;20088;-76
2021/12/22 11:19:33;;;;;;;34.70;9.80;;;-1.90;99.90;;;;;;5038688;28;20037;-76
2021/12/22 11:22:13;;;;;;;33.30;9.90;;;-1.90;99.90;;;;;;5055993;28;20058;-75
2021/12/22 11:24:50;;;;;;;22.40;9.27;;;-1.90;99.90;;;;;;5031601;28;20037;-75
2021/12/22 11:27:22;;;;;;;31.08;9.52;;;-1.90;99.90;;;;;;5033573;28;20054;-76
2021/12/22 11:29:57;;;;;;;28.77;10.55;;;-2.00;99.90;;;;;;5044064;28;20021;-75
2021/12/22 11:32:29;;;;;;;30.25;10.52;;;-2.00;99.90;;;;;;5043109;28;20029;-76
2021/12/22 11:34:59;;;;;;;35.78;11.40;;;-1.90;99.90;;;;;;5044519;28;20022;-76
2021/12/22 11:37:27;;;;;;;27.80;8.18;;;-1.90;99.90;;;;;;5044292;28;20025;-76
2021/12/22 11:39:55;;;;;;;24.05;9.27;;;-1.80;99.90;;;;;;5044837;28;20029;-76
2021/12/22 11:42:25;;;;;;;29.42;10.45;;;-1.80;99.90;;;;;;5044653;28;20089;-76
2021/12/22 11:44:55;;;;;;;36.95;10.93;;;-1.90;99.90;;;;;;5044805;28;20038;-74
2021/12/22 11:47:21;;;;;;;37.03;9.65;;;-1.90;99.90;;;;;;5042912;28;20028;-74
2021/12/22 11:49:59;;;;;;;38.35;11.30;;;-1.90;99.90;;;;;;5044595;28;20025;-74
2021/12/22 11:52:32;;;;;;;32.42;10.07;;;-1.80;99.90;;;;;;5043413;28;20029;-76
2021/12/22 11:55:20;;;;;;;40.53;11.27;;;-1.80;99.90;;;;;;5041785;28;20107;-76
2021/12/22 11:57:50;;;;;;;36.20;10.68;;;-1.80;99.90;;;;;;5037091;28;20029;-75
2021/12/22 12:00:21;;;;;;;33.60;10.68;;;-1.80;99.90;;;;;;5042435;28;20034;-76
2021/12/22 12:02:47;;;;;;;33.13;11.40;;;-1.70;99.90;;;;;;5043572;28;20036;-75
2021/12/22 12:05:13;;;;;;;43.33;11.80;;;-1.70;99.90;;;;;;5041540;28;20100;-75
2021/12/22 12:07:55;;;;;;;34.70;11.20;;;-1.70;99.90;;;;;;5043452;28;20033;-75
2021/12/22 12:10:41;;;;;;;38.97;11.85;;;-1.60;99.90;;;;;;5042206;28;20037;-76
2021/12/22 12:13:36;;;;;;;40.53;13.10;;;-1.60;99.90;;;;;;5043042;28;20160;-76
2021/12/22 12:21:57;;;;;;;34.95;11.77;;;-1.80;99.90;;;;;;5043406;28;20067;-75
2021/12/22 12:25:02;;;;;;;34.25;11.20;;;-1.80;99.90;;;;;;5043002;28;20543;-76
2021/12/22 12:27:43;;;;;;;25.85;9.52;;;-1.90;99.90;;;;;;5042385;28;20017;-77
2021/12/22 12:30:21;;;;;;;30.80;10.20;;;-1.80;99.90;;;;;;5039249;28;20112;-76
2021/12/22 12:32:50;;;;;;;19.75;8.30;;;-1.80;99.90;;;;;;5033538;28;20057;-77
2021/12/22 12:35:19;;;;;;;27.75;8.85;;;-1.80;99.90;;;;;;5021837;28;20038;-75
2021/12/22 12:38:23;;;;;;;45.00;10.40;;;-1.80;99.90;;;;;;5028964;28;20041;-75
2021/12/22 12:40:57;;;;;;;30.83;9.95;;;-1.70;99.90;;;;;;5041739;28;20400;-77
2021/12/22 12:43:53;;;;;;;42.03;12.07;;;-1.80;99.90;;;;;;5043002;28;20033;-75
2021/12/22 12:46:44;;;;;;;32.72;10.93;;;-1.70;99.90;;;;;;5043397;28;20038;-77
2021/12/22 12:49:13;;;;;;;38.22;10.23;;;-1.60;99.90;;;;;;5042304;28;20026;-76
2021/12/22 12:51:49;;;;;;;32.28;11.27;;;-1.60;99.90;;;;;;5040975;28;20029;-77
2021/12/22 12:54:19;;;;;;;32.28;12.00;;;-1.60;99.90;;;;;;5042462;28;20061;-77
2021/12/22 12:57:12;;;;;;;34.42;9.75;;;-1.60;99.90;;;;;;5041106;28;20048;-75
2021/12/22 12:59:37;;;;;;;28.73;9.93;;;-1.60;99.90;;;;;;5036172;28;20049;-76
2021/12/22 13:02:08;;;;;;;36.50;12.50;;;-1.60;99.90;;;;;;5042157;28;20022;-77
2021/12/22 13:04:43;;;;;;;43.42;11.80;;;-1.50;99.90;;;;;;5041001;28;20107;-77
2021/12/22 13:07:20;;;;;;;42.08;11.18;;;-1.50;99.90;;;;;;5031478;28;20390;-72
2021/12/22 13:09:54;;;;;;;33.13;11.05;;;-1.50;99.90;;;;;;5022209;28;20056;-73